sensor_id;sensor_type;location;lat;lon;timestamp;P1;durP1;ratioP1;P2;durP2;ratioP2
47958;SDS011;33718;50.910;-1.514;2023-04-26T00:02:10;8.77;;;4.57;;
47958;SDS011;33718;50.910;-1.514;2023-04-26T00:04:12;7.40;;;4.00;;
47958;SDS011;33718;50.910;-1.514;2023-04-26T00:06:17;11.73;;;4.40;;
47958;SDS011;33718;50.910;-1.514;2023-04-26T00:08:18;10.05;;;4.72;;
47958;SDS011;33718;50.910;-1.514;2023-04-26T00:10:20;12.40;;;5.15;;
47958;SDS011;33718;50.910;-1.514;2023-04-26T00:12:24;8.88;;;4.32;;
47958;SDS011;33718;50.910;-1.514;2023-04-26T00:14:44;6.72;;;4.10;;
47958;SDS011;33718;50.910;-1.514;2023-04-26T00:16:46;7.78;;;4.00;;
47958;SDS011;33718;50.910;-1.514;2023-04-26T00:18:48;12.35;;;4.13;;
47958;SDS011;33718;50.910;-1.514;2023-04-26T00:20:49;6.85;;;4.18;;
47958;SDS011;33718;50.910;-1.514;2023-04-26T00:22:55;8.90;;;5.05;;
47958;SDS011;33718;50.910;-1.514;2023-04-26T00:25:18;12.30;;;4.90;;
47958;SDS011;33718;50.910;-1.514;2023-04-26T00:27:34;12.90;;;5.32;;
47958;SDS011;33718;50.910;-1.514;2023-04-26T00:29:46;14.13;;;5.38;;
47958;SDS011;33718;50.910;-1.514;2023-04-26T00:31:59;12.15;;;4.70;;
47958;SDS011;33718;50.910;-1.514;2023-04-26T00:34:08;7.25;;;4.35;;
47958;SDS011;33718;50.910;-1.514;2023-04-26T00:36:17;7.88;;;4.25;;
47958;SDS011;33718;50.910;-1.514;2023-04-26T00:38:28;10.70;;;4.97;;
47958;SDS011;33718;50.910;-1.514;2023-04-26T00:40:42;7.20;;;4.65;;
47958;SDS011;33718;50.910;-1.514;2023-04-26T00:43:00;10.53;;;3.70;;
47958;SDS011;33718;50.910;-1.514;2023-04-26T00:45:11;7.68;;;4.18;;
47958;SDS011;33718;50.910;-1.514;2023-04-26T00:47:24;11.73;;;4.68;;
47958;SDS011;33718;50.910;-1.514;2023-04-26T00:49:35;10.93;;;5.00;;
47958;SDS011;33718;50.910;-1.514;2023-04-26T00:51:47;12.80;;;4.82;;
47958;SDS011;33718;50.910;-1.514;2023-04-26T00:54:00;10.70;;;4.40;;
47958;SDS011;33718;50.910;-1.514;2023-04-26T00:56:15;8.60;;;4.30;;
47958;SDS011;33718;50.910;-1.514;2023-04-26T00:58:24;11.23;;;4.25;;
47958;SDS011;33718;50.910;-1.514;2023-04-26T01:00:26;9.82;;;4.28;;
47958;SDS011;33718;50.910;-1.514;2023-04-26T01:02:28;4.45;;;3.25;;
47958;SDS011;33718;50.910;-1.514;2023-04-26T01:04:32;10.13;;;4.20;;
47958;SDS011;33718;50.910;-1.514;2023-04-26T01:06:37;9.30;;;3.10;;
47958;SDS011;33718;50.910;-1.514;2023-04-26T01:08:39;8.48;;;2.90;;
47958;SDS011;33718;50.910;-1.514;2023-04-26T01:10:44;10.07;;;2.90;;
47958;SDS011;33718;50.910;-1.514;2023-04-26T01:12:46;6.18;;;2.53;;
47958;SDS011;33718;50.910;-1.514;2023-04-26T01:14:48;9.30;;;3.00;;
47958;SDS011;33718;50.910;-1.514;2023-04-26T01:16:52;8.15;;;2.75;;
47958;SDS011;33718;50.910;-1.514;2023-04-26T01:18:54;7.15;;;3.08;;
47958;SDS011;33718;50.910;-1.514;2023-04-26T01:20:56;5.50;;;2.95;;
47958;SDS011;33718;50.910;-1.514;2023-04-26T01:23:00;9.23;;;2.90;;
47958;SDS011;33718;50.910;-1.514;2023-04-26T01:25:02;8.65;;;2.67;;
47958;SDS011;33718;50.910;-1.514;2023-04-26T01:27:04;7.43;;;2.95;;
47958;SDS011;33718;50.910;-1.514;2023-04-26T01:29:19;7.93;;;2.88;;
47958;SDS011;33718;50.910;-1.514;2023-04-26T01:31:21;10.93;;;2.80;;
47958;SDS011;33718;50.910;-1.514;2023-04-26T01:33:26;9.30;;;2.85;;
47958;SDS011;33718;50.910;-1.514;2023-04-26T01:35:30;10.48;;;3.45;;
47958;SDS011;33718;50.910;-1.514;2023-04-26T01:37:34;7.10;;;3.00;;
47958;SDS011;33718;50.910;-1.514;2023-04-26T01:39:36;8.82;;;2.95;;
47958;SDS011;33718;50.910;-1.514;2023-04-26T01:41:41;9.18;;;2.83;;
47958;SDS011;33718;50.910;-1.514;2023-04-26T01:43:42;7.45;;;2.38;;
47958;SDS011;33718;50.910;-1.514;2023-04-26T01:46:02;8.50;;;2.55;;
47958;SDS011;33718;50.910;-1.514;2023-04-26T01:48:07;10.77;;;2.28;;
47958;SDS011;33718;50.910;-1.514;2023-04-26T01:50:09;4.85;;;2.50;;
47958;SDS011;33718;50.910;-1.514;2023-04-26T01:52:29;9.98;;;3.33;;
47958;SDS011;33718;50.910;-1.514;2023-04-26T01:54:33;10.90;;;2.67;;
47958;SDS011;33718;50.910;-1.514;2023-04-26T01:58:42;7.38;;;2.72;;
47958;SDS011;33718;50.910;-1.514;2023-04-26T02:00:43;7.28;;;2.67;;
47958;SDS011;33718;50.910;-1.514;2023-04-26T02:03:03;12.10;;;3.22;;
47958;SDS011;33718;50.910;-1.514;2023-04-26T02:05:09;7.68;;;2.28;;
47958;SDS011;33718;50.910;-1.514;2023-04-26T02:07:11;10.55;;;2.67;;
47958;SDS011;33718;50.910;-1.514;2023-04-26T02:11:35;9.25;;;2.78;;
47958;SDS011;33718;50.910;-1.514;2023-04-26T02:15:46;6.15;;;2.50;;
47958;SDS011;33718;50.910;-1.514;2023-04-26T02:17:51;8.43;;;2.30;;
47958;SDS011;33718;50.910;-1.514;2023-04-26T02:19:57;7.03;;;2.50;;
47958;SDS011;33718;50.910;-1.514;2023-04-26T02:21:58;11.15;;;2.40;;
47958;SDS011;33718;50.910;-1.514;2023-04-26T02:24:00;5.30;;;2.20;;
47958;SDS011;33718;50.910;-1.514;2023-04-26T02:26:04;8.35;;;2.45;;
47958;SDS011;33718;50.910;-1.514;2023-04-26T02:30:28;13.20;;;3.20;;
47958;SDS011;33718;50.910;-1.514;2023-04-26T02:32:30;6.55;;;2.65;;
47958;SDS011;33718;50.910;-1.514;2023-04-26T02:34:50;6.88;;;1.77;;
47958;SDS011;33718;50.910;-1.514;2023-04-26T02:36:52;8.00;;;2.47;;
47958;SDS011;33718;50.910;-1.514;2023-04-26T02:38:53;6.82;;;2.55;;
47958;SDS011;33718;50.910;-1.514;2023-04-26T02:40:58;12.05;;;2.92;;
47958;SDS011;33718;50.910;-1.514;2023-04-26T02:43:03;9.75;;;3.33;;
47958;SDS011;33718;50.910;-1.514;2023-04-26T02:45:04;8.93;;;2.28;;
47958;SDS011;33718;50.910;-1.514;2023-04-26T02:47:09;8.52;;;2.50;;
47958;SDS011;33718;50.910;-1.514;2023-04-26T02:49:11;7.78;;;2.50;;
47958;SDS011;33718;50.910;-1.514;2023-04-26T02:51:15;6.82;;;3.00;;
47958;SDS011;33718;50.910;-1.514;2023-04-26T02:53:17;7.32;;;2.70;;
47958;SDS011;33718;50.910;-1.514;2023-04-26T02:55:21;10.00;;;2.92;;
47958;SDS011;33718;50.910;-1.514;2023-04-26T02:57:26;11.95;;;2.70;;
47958;SDS011;33718;50.910;-1.514;2023-04-26T02:59:33;7.65;;;2.15;;
47958;SDS011;33718;50.910;-1.514;2023-04-26T03:01:35;13.82;;;2.20;;
47958;SDS011;33718;50.910;-1.514;2023-04-26T03:03:39;6.97;;;2.28;;
47958;SDS011;33718;50.910;-1.514;2023-04-26T03:05:41;9.10;;;3.17;;
47958;SDS011;33718;50.910;-1.514;2023-04-26T03:07:42;10.18;;;2.30;;
47958;SDS011;33718;50.910;-1.514;2023-04-26T03:09:46;9.27;;;2.70;;
47958;SDS011;33718;50.910;-1.514;2023-04-26T03:11:48;11.55;;;3.15;;
47958;SDS011;33718;50.910;-1.514;2023-04-26T03:13:53;5.95;;;2.45;;
47958;SDS011;33718;50.910;-1.514;2023-04-26T03:15:54;8.27;;;1.85;;
47958;SDS011;33718;50.910;-1.514;2023-04-26T03:18:15;13.70;;;2.45;;
47958;SDS011;33718;50.910;-1.514;2023-04-26T03:20:16;6.53;;;1.88;;
47958;SDS011;33718;50.910;-1.514;2023-04-26T03:24:22;6.60;;;2.58;;
47958;SDS011;33718;50.910;-1.514;2023-04-26T03:26:24;8.80;;;2.10;;
47958;SDS011;33718;50.910;-1.514;2023-04-26T03:28:33;11.55;;;2.20;;
47958;SDS011;33718;50.910;-1.514;2023-04-26T03:30:48;6.47;;;2.58;;
47958;SDS011;33718;50.910;-1.514;2023-04-26T03:33:05;11.27;;;2.42;;
47958;SDS011;33718;50.910;-1.514;2023-04-26T03:35:17;6.87;;;2.07;;
47958;SDS011;33718;50.910;-1.514;2023-04-26T03:37:47;4.57;;;1.75;;
47958;SDS011;33718;50.910;-1.514;2023-04-26T03:40:09;7.80;;;2.33;;
47958;SDS011;33718;50.910;-1.514;2023-04-26T03:42:24;8.32;;;3.15;;
47958;SDS011;33718;50.910;-1.514;2023-04-26T03:44:54;8.93;;;2.72;;
47958;SDS011;33718;50.910;-1.514;2023-04-26T03:47:10;7.47;;;2.17;;
47958;SDS011;33718;50.910;-1.514;2023-04-26T03:49:25;6.80;;;1.83;;
47958;SDS011;33718;50.910;-1.514;2023-04-26T03:51:38;9.40;;;2.38;;
47958;SDS011;33718;50.910;-1.514;2023-04-26T03:53:54;7.70;;;1.92;;
47958;SDS011;33718;50.910;-1.514;2023-04-26T03:56:22;14.05;;;1.92;;
47958;SDS011;33718;50.910;-1.514;2023-04-26T03:58:50;7.60;;;2.88;;
47958;SDS011;33718;50.910;-1.514;2023-04-26T04:01:14;8.63;;;2.70;;
47958;SDS011;33718;50.910;-1.514;2023-04-26T04:03:41;7.70;;;3.05;;
47958;SDS011;33718;50.910;-1.514;2023-04-26T04:05:45;14.95;;;2.15;;
47958;SDS011;33718;50.910;-1.514;2023-04-26T04:07:47;7.03;;;2.25;;
47958;SDS011;33718;50.910;-1.514;2023-04-26T04:09:51;13.20;;;2.28;;
47958;SDS011;33718;50.910;-1.514;2023-04-26T04:11:52;8.52;;;2.22;;
47958;SDS011;33718;50.910;-1.514;2023-04-26T04:13:54;6.00;;;2.03;;
47958;SDS011;33718;50.910;-1.514;2023-04-26T04:15:58;9.65;;;2.40;;
47958;SDS011;33718;50.910;-1.514;2023-04-26T04:18:00;11.10;;;3.03;;
47958;SDS011;33718;50.910;-1.514;2023-04-26T04:20:05;9.40;;;2.72;;
47958;SDS011;33718;50.910;-1.514;2023-04-26T04:22:10;12.30;;;2.15;;
47958;SDS011;33718;50.910;-1.514;2023-04-26T04:24:12;10.85;;;2.40;;
47958;SDS011;33718;50.910;-1.514;2023-04-26T04:26:14;8.93;;;2.30;;
47958;SDS011;33718;50.910;-1.514;2023-04-26T04:28:18;6.57;;;1.98;;
47958;SDS011;33718;50.910;-1.514;2023-04-26T04:30:22;6.55;;;1.90;;
47958;SDS011;33718;50.910;-1.514;2023-04-26T04:32:27;7.07;;;2.47;;
47958;SDS011;33718;50.910;-1.514;2023-04-26T04:34:48;20.27;;;3.35;;
47958;SDS011;33718;50.910;-1.514;2023-04-26T04:36:54;8.88;;;2.47;;
47958;SDS011;33718;50.910;-1.514;2023-04-26T04:38:55;9.77;;;2.58;;
47958;SDS011;33718;50.910;-1.514;2023-04-26T04:40:57;7.22;;;2.42;;
47958;SDS011;33718;50.910;-1.514;2023-04-26T04:42:59;9.18;;;2.13;;
47958;SDS011;33718;50.910;-1.514;2023-04-26T04:45:04;14.82;;;3.00;;
47958;SDS011;33718;50.910;-1.514;2023-04-26T04:47:06;7.60;;;2.13;;
47958;SDS011;33718;50.910;-1.514;2023-04-26T04:49:10;11.45;;;2.63;;
47958;SDS011;33718;50.910;-1.514;2023-04-26T04:51:12;8.63;;;2.25;;
47958;SDS011;33718;50.910;-1.514;2023-04-26T04:53:16;6.55;;;2.67;;
47958;SDS011;33718;50.910;-1.514;2023-04-26T04:55:21;9.90;;;2.40;;
47958;SDS011;33718;50.910;-1.514;2023-04-26T04:57:22;10.35;;;2.50;;
47958;SDS011;33718;50.910;-1.514;2023-04-26T04:59:26;6.38;;;2.33;;
47958;SDS011;33718;50.910;-1.514;2023-04-26T05:01:29;7.07;;;2.85;;
47958;SDS011;33718;50.910;-1.514;2023-04-26T05:03:31;13.02;;;3.13;;
47958;SDS011;33718;50.910;-1.514;2023-04-26T05:05:37;7.30;;;2.80;;
47958;SDS011;33718;50.910;-1.514;2023-04-26T05:07:41;11.18;;;2.40;;
47958;SDS011;33718;50.910;-1.514;2023-04-26T05:09:43;9.80;;;2.55;;
47958;SDS011;33718;50.910;-1.514;2023-04-26T05:11:44;10.23;;;3.63;;
47958;SDS011;33718;50.910;-1.514;2023-04-26T05:13:49;8.35;;;2.92;;
47958;SDS011;33718;50.910;-1.514;2023-04-26T05:15:55;11.55;;;3.63;;
47958;SDS011;33718;50.910;-1.514;2023-04-26T05:18:16;7.53;;;2.28;;
47958;SDS011;33718;50.910;-1.514;2023-04-26T05:20:17;4.70;;;2.20;;
47958;SDS011;33718;50.910;-1.514;2023-04-26T05:22:19;13.52;;;2.40;;
47958;SDS011;33718;50.910;-1.514;2023-04-26T05:24:22;16.25;;;2.67;;
47958;SDS011;33718;50.910;-1.514;2023-04-26T05:26:26;13.95;;;4.10;;
47958;SDS011;33718;50.910;-1.514;2023-04-26T05:28:30;8.77;;;2.80;;
47958;SDS011;33718;50.910;-1.514;2023-04-26T05:30:35;6.47;;;2.55;;
47958;SDS011;33718;50.910;-1.514;2023-04-26T05:32:36;10.13;;;2.42;;
47958;SDS011;33718;50.910;-1.514;2023-04-26T05:34:41;11.65;;;2.30;;
47958;SDS011;33718;50.910;-1.514;2023-04-26T05:36:45;6.28;;;2.38;;
47958;SDS011;33718;50.910;-1.514;2023-04-26T05:39:05;11.65;;;2.75;;
47958;SDS011;33718;50.910;-1.514;2023-04-26T05:41:07;5.90;;;2.30;;
47958;SDS011;33718;50.910;-1.514;2023-04-26T05:45:16;14.18;;;3.30;;
47958;SDS011;33718;50.910;-1.514;2023-04-26T05:47:17;8.05;;;2.35;;
47958;SDS011;33718;50.910;-1.514;2023-04-26T05:49:37;12.00;;;3.30;;
47958;SDS011;33718;50.910;-1.514;2023-04-26T05:51:41;9.70;;;2.80;;
47958;SDS011;33718;50.910;-1.514;2023-04-26T05:53:46;10.02;;;2.70;;
47958;SDS011;33718;50.910;-1.514;2023-04-26T05:55:47;10.82;;;2.95;;
47958;SDS011;33718;50.910;-1.514;2023-04-26T05:57:49;14.50;;;3.22;;
47958;SDS011;33718;50.910;-1.514;2023-04-26T05:59:53;11.38;;;3.05;;
47958;SDS011;33718;50.910;-1.514;2023-04-26T06:01:58;14.05;;;3.92;;
47958;SDS011;33718;50.910;-1.514;2023-04-26T06:03:59;9.32;;;2.97;;
47958;SDS011;33718;50.910;-1.514;2023-04-26T06:06:05;13.98;;;3.03;;
47958;SDS011;33718;50.910;-1.514;2023-04-26T06:08:06;8.90;;;3.17;;
47958;SDS011;33718;50.910;-1.514;2023-04-26T06:10:11;16.20;;;3.00;;
47958;SDS011;33718;50.910;-1.514;2023-04-26T06:12:32;17.30;;;2.72;;
47958;SDS011;33718;50.910;-1.514;2023-04-26T06:14:34;7.95;;;3.05;;
47958;SDS011;33718;50.910;-1.514;2023-04-26T06:18:40;6.35;;;2.92;;
47958;SDS011;33718;50.910;-1.514;2023-04-26T06:20:42;13.02;;;3.13;;
47958;SDS011;33718;50.910;-1.514;2023-04-26T06:22:46;10.75;;;2.65;;
47958;SDS011;33718;50.910;-1.514;2023-04-26T06:24:50;10.85;;;4.50;;
47958;SDS011;33718;50.910;-1.514;2023-04-26T06:26:52;10.60;;;2.75;;
47958;SDS011;33718;50.910;-1.514;2023-04-26T06:28:53;2.50;;;1.80;;
47958;SDS011;33718;50.910;-1.514;2023-04-26T06:30:55;12.98;;;3.05;;
47958;SDS011;33718;50.910;-1.514;2023-04-26T06:33:02;13.38;;;3.33;;
47958;SDS011;33718;50.910;-1.514;2023-04-26T06:35:16;8.43;;;2.42;;
47958;SDS011;33718;50.910;-1.514;2023-04-26T06:37:31;9.07;;;3.20;;
47958;SDS011;33718;50.910;-1.514;2023-04-26T06:40:03;9.40;;;3.20;;
47958;SDS011;33718;50.910;-1.514;2023-04-26T06:42:12;13.15;;;3.88;;
47958;SDS011;33718;50.910;-1.514;2023-04-26T06:44:20;11.20;;;2.78;;
47958;SDS011;33718;50.910;-1.514;2023-04-26T06:46:37;7.90;;;2.60;;
47958;SDS011;33718;50.910;-1.514;2023-04-26T06:48:55;9.93;;;2.65;;
47958;SDS011;33718;50.910;-1.514;2023-04-26T06:51:07;12.30;;;2.92;;
47958;SDS011;33718;50.910;-1.514;2023-04-26T06:53:20;16.80;;;3.22;;
47958;SDS011;33718;50.910;-1.514;2023-04-26T06:55:36;5.47;;;2.40;;
47958;SDS011;33718;50.910;-1.514;2023-04-26T06:57:46;9.63;;;3.25;;
47958;SDS011;33718;50.910;-1.514;2023-04-26T06:59:58;12.82;;;2.78;;
47958;SDS011;33718;50.910;-1.514;2023-04-26T07:02:13;9.90;;;3.08;;
47958;SDS011;33718;50.910;-1.514;2023-04-26T07:04:31;9.48;;;3.25;;
47958;SDS011;33718;50.910;-1.514;2023-04-26T07:06:59;10.05;;;3.53;;
47958;SDS011;33718;50.910;-1.514;2023-04-26T07:09:14;12.02;;;4.13;;
47958;SDS011;33718;50.910;-1.514;2023-04-26T07:11:15;10.50;;;2.80;;
47958;SDS011;33718;50.910;-1.514;2023-04-26T07:13:17;14.43;;;3.33;;
47958;SDS011;33718;50.910;-1.514;2023-04-26T07:15:18;20.35;;;3.40;;
47958;SDS011;33718;50.910;-1.514;2023-04-26T07:17:38;14.45;;;5.20;;
47958;SDS011;33718;50.910;-1.514;2023-04-26T07:22:02;12.02;;;2.63;;
47958;SDS011;33718;50.910;-1.514;2023-04-26T07:24:23;14.07;;;2.92;;
47958;SDS011;33718;50.910;-1.514;2023-04-26T07:26:25;16.73;;;2.88;;
47958;SDS011;33718;50.910;-1.514;2023-04-26T07:28:27;14.68;;;3.25;;
47958;SDS011;33718;50.910;-1.514;2023-04-26T07:30:31;14.13;;;2.80;;
47958;SDS011;33718;50.910;-1.514;2023-04-26T07:32:33;16.88;;;3.13;;
47958;SDS011;33718;50.910;-1.514;2023-04-26T07:34:53;13.07;;;3.05;;
47958;SDS011;33718;50.910;-1.514;2023-04-26T07:36:55;11.23;;;3.03;;
47958;SDS011;33718;50.910;-1.514;2023-04-26T07:38:57;11.65;;;3.13;;
47958;SDS011;33718;50.910;-1.514;2023-04-26T07:41:01;15.23;;;2.63;;
47958;SDS011;33718;50.910;-1.514;2023-04-26T07:43:05;16.10;;;2.95;;
47958;SDS011;33718;50.910;-1.514;2023-04-26T07:45:07;14.82;;;3.10;;
47958;SDS011;33718;50.910;-1.514;2023-04-26T07:47:12;13.32;;;2.78;;
47958;SDS011;33718;50.910;-1.514;2023-04-26T07:49:14;11.52;;;3.03;;
47958;SDS011;33718;50.910;-1.514;2023-04-26T07:51:15;14.90;;;3.30;;
47958;SDS011;33718;50.910;-1.514;2023-04-26T07:53:17;7.68;;;2.85;;
47958;SDS011;33718;50.910;-1.514;2023-04-26T07:55:19;9.75;;;3.50;;
47958;SDS011;33718;50.910;-1.514;2023-04-26T07:57:20;23.00;;;3.28;;
47958;SDS011;33718;50.910;-1.514;2023-04-26T08:01:29;12.82;;;2.60;;
47958;SDS011;33718;50.910;-1.514;2023-04-26T08:03:33;11.40;;;3.45;;
47958;SDS011;33718;50.910;-1.514;2023-04-26T08:05:38;13.55;;;2.33;;
47958;SDS011;33718;50.910;-1.514;2023-04-26T08:07:43;14.02;;;3.88;;
47958;SDS011;33718;50.910;-1.514;2023-04-26T08:09:47;11.98;;;3.83;;
47958;SDS011;33718;50.910;-1.514;2023-04-26T08:11:52;13.73;;;2.83;;
47958;SDS011;33718;50.910;-1.514;2023-04-26T08:13:53;17.02;;;5.15;;
47958;SDS011;33718;50.910;-1.514;2023-04-26T08:15:58;15.52;;;3.60;;
47958;SDS011;33718;50.910;-1.514;2023-04-26T08:18:02;10.60;;;2.85;;
47958;SDS011;33718;50.910;-1.514;2023-04-26T08:20:04;12.65;;;2.78;;
47958;SDS011;33718;50.910;-1.514;2023-04-26T08:22:08;12.50;;;2.75;;
47958;SDS011;33718;50.910;-1.514;2023-04-26T08:24:10;11.45;;;3.45;;
47958;SDS011;33718;50.910;-1.514;2023-04-26T08:26:14;18.13;;;4.82;;
47958;SDS011;33718;50.910;-1.514;2023-04-26T08:28:19;21.55;;;4.80;;
47958;SDS011;33718;50.910;-1.514;2023-04-26T08:30:20;12.95;;;3.17;;
47958;SDS011;33718;50.910;-1.514;2023-04-26T08:32:24;14.15;;;3.30;;
47958;SDS011;33718;50.910;-1.514;2023-04-26T08:34:26;9.95;;;3.08;;
47958;SDS011;33718;50.910;-1.514;2023-04-26T08:36:35;13.52;;;3.03;;
47958;SDS011;33718;50.910;-1.514;2023-04-26T08:40:57;11.25;;;3.75;;
47958;SDS011;33718;50.910;-1.514;2023-04-26T08:42:59;19.13;;;3.33;;
47958;SDS011;33718;50.910;-1.514;2023-04-26T08:45:00;7.22;;;2.50;;
47958;SDS011;33718;50.910;-1.514;2023-04-26T08:47:06;8.73;;;3.28;;
47958;SDS011;33718;50.910;-1.514;2023-04-26T08:51:27;16.70;;;3.38;;
47958;SDS011;33718;50.910;-1.514;2023-04-26T08:53:33;11.48;;;3.03;;
47958;SDS011;33718;50.910;-1.514;2023-04-26T08:55:38;18.38;;;4.18;;
47958;SDS011;33718;50.910;-1.514;2023-04-26T08:57:40;12.95;;;3.92;;
47958;SDS011;33718;50.910;-1.514;2023-04-26T08:59:45;14.30;;;3.50;;
47958;SDS011;33718;50.910;-1.514;2023-04-26T09:01:47;13.35;;;3.42;;
47958;SDS011;33718;50.910;-1.514;2023-04-26T09:03:53;19.75;;;3.55;;
47958;SDS011;33718;50.910;-1.514;2023-04-26T09:05:55;18.50;;;3.75;;
47958;SDS011;33718;50.910;-1.514;2023-04-26T09:08:00;15.40;;;3.53;;
47958;SDS011;33718;50.910;-1.514;2023-04-26T09:10:05;15.70;;;3.33;;
47958;SDS011;33718;50.910;-1.514;2023-04-26T09:12:09;11.18;;;2.78;;
47958;SDS011;33718;50.910;-1.514;2023-04-26T09:14:15;11.98;;;3.25;;
47958;SDS011;33718;50.910;-1.514;2023-04-26T09:16:17;16.10;;;3.45;;
47958;SDS011;33718;50.910;-1.514;2023-04-26T09:18:22;16.58;;;4.07;;
47958;SDS011;33718;50.910;-1.514;2023-04-26T09:20:24;9.23;;;3.28;;
47958;SDS011;33718;50.910;-1.514;2023-04-26T09:22:33;20.13;;;4.28;;
47958;SDS011;33718;50.910;-1.514;2023-04-26T09:24:47;22.10;;;4.10;;
47958;SDS011;33718;50.910;-1.514;2023-04-26T09:27:00;13.65;;;3.88;;
47958;SDS011;33718;50.910;-1.514;2023-04-26T09:29:13;10.98;;;3.28;;
47958;SDS011;33718;50.910;-1.514;2023-04-26T09:31:40;13.20;;;3.65;;
47958;SDS011;33718;50.910;-1.514;2023-04-26T09:33:56;17.65;;;3.78;;
47958;SDS011;33718;50.910;-1.514;2023-04-26T09:36:09;14.93;;;3.58;;
47958;SDS011;33718;50.910;-1.514;2023-04-26T09:38:13;13.77;;;3.13;;
47958;SDS011;33718;50.910;-1.514;2023-04-26T09:40:20;16.88;;;3.72;;
47958;SDS011;33718;50.910;-1.514;2023-04-26T09:42:28;8.05;;;3.22;;
47958;SDS011;33718;50.910;-1.514;2023-04-26T09:44:34;20.17;;;4.57;;
47958;SDS011;33718;50.910;-1.514;2023-04-26T09:46:38;14.18;;;3.47;;
47958;SDS011;33718;50.910;-1.514;2023-04-26T09:48:59;18.25;;;3.20;;
47958;SDS011;33718;50.910;-1.514;2023-04-26T09:51:12;14.82;;;3.58;;
47958;SDS011;33718;50.910;-1.514;2023-04-26T09:53:26;15.27;;;3.72;;
47958;SDS011;33718;50.910;-1.514;2023-04-26T09:55:31;16.05;;;3.38;;
47958;SDS011;33718;50.910;-1.514;2023-04-26T09:57:57;14.40;;;2.95;;
47958;SDS011;33718;50.910;-1.514;2023-04-26T10:00:06;12.15;;;3.40;;
47958;SDS011;33718;50.910;-1.514;2023-04-26T10:02:22;15.18;;;3.60;;
47958;SDS011;33718;50.910;-1.514;2023-04-26T10:04:30;12.68;;;3.40;;
47958;SDS011;33718;50.910;-1.514;2023-04-26T10:06:38;14.50;;;3.60;;
47958;SDS011;33718;50.910;-1.514;2023-04-26T10:08:49;14.13;;;3.47;;
47958;SDS011;33718;50.910;-1.514;2023-04-26T10:11:04;10.07;;;3.53;;
47958;SDS011;33718;50.910;-1.514;2023-04-26T10:13:21;19.25;;;4.00;;
47958;SDS011;33718;50.910;-1.514;2023-04-26T10:15:34;11.30;;;3.05;;
47958;SDS011;33718;50.910;-1.514;2023-04-26T10:17:46;14.23;;;3.65;;
47958;SDS011;33718;50.910;-1.514;2023-04-26T10:20:02;16.50;;;3.15;;
47958;SDS011;33718;50.910;-1.514;2023-04-26T10:22:32;9.40;;;3.55;;
47958;SDS011;33718;50.910;-1.514;2023-04-26T10:24:36;11.32;;;2.95;;
47958;SDS011;33718;50.910;-1.514;2023-04-26T10:26:56;8.80;;;2.92;;
47958;SDS011;33718;50.910;-1.514;2023-04-26T10:28:58;12.38;;;3.42;;
47958;SDS011;33718;50.910;-1.514;2023-04-26T10:31:03;9.57;;;3.45;;
47958;SDS011;33718;50.910;-1.514;2023-04-26T10:33:12;14.90;;;3.90;;
47958;SDS011;33718;50.910;-1.514;2023-04-26T10:35:17;14.20;;;3.90;;
47958;SDS011;33718;50.910;-1.514;2023-04-26T10:37:22;10.55;;;3.55;;
47958;SDS011;33718;50.910;-1.514;2023-04-26T10:39:23;13.00;;;3.42;;
47958;SDS011;33718;50.910;-1.514;2023-04-26T10:41:44;16.42;;;3.45;;
47958;SDS011;33718;50.910;-1.514;2023-04-26T10:46:35;14.02;;;3.30;;
47958;SDS011;33718;50.910;-1.514;2023-04-26T10:48:40;12.85;;;4.20;;
47958;SDS011;33718;50.910;-1.514;2023-04-26T10:55:07;9.65;;;3.88;;
47958;SDS011;33718;50.910;-1.514;2023-04-26T10:57:13;14.82;;;3.70;;
47958;SDS011;33718;50.910;-1.514;2023-04-26T10:59:18;16.95;;;4.72;;
47958;SDS011;33718;50.910;-1.514;2023-04-26T11:01:46;11.60;;;3.53;;
47958;SDS011;33718;50.910;-1.514;2023-04-26T11:05:59;16.27;;;4.03;;
47958;SDS011;33718;50.910;-1.514;2023-04-26T11:08:05;10.65;;;3.45;;
47958;SDS011;33718;50.910;-1.514;2023-04-26T11:10:10;18.65;;;3.83;;
47958;SDS011;33718;50.910;-1.514;2023-04-26T11:12:25;10.57;;;4.07;;
47958;SDS011;33718;50.910;-1.514;2023-04-26T11:14:27;13.18;;;3.38;;
47958;SDS011;33718;50.910;-1.514;2023-04-26T11:16:28;13.75;;;3.30;;
47958;SDS011;33718;50.910;-1.514;2023-04-26T11:20:36;9.25;;;3.10;;
47958;SDS011;33718;50.910;-1.514;2023-04-26T11:22:38;17.10;;;3.78;;
47958;SDS011;33718;50.910;-1.514;2023-04-26T11:24:41;9.68;;;3.08;;
47958;SDS011;33718;50.910;-1.514;2023-04-26T11:26:50;10.80;;;3.88;;
47958;SDS011;33718;50.910;-1.514;2023-04-26T11:28:51;14.20;;;3.75;;
47958;SDS011;33718;50.910;-1.514;2023-04-26T11:30:53;15.77;;;3.80;;
47958;SDS011;33718;50.910;-1.514;2023-04-26T11:32:57;19.30;;;3.28;;
47958;SDS011;33718;50.910;-1.514;2023-04-26T11:34:59;10.10;;;3.17;;
47958;SDS011;33718;50.910;-1.514;2023-04-26T11:37:04;12.70;;;3.38;;
47958;SDS011;33718;50.910;-1.514;2023-04-26T11:39:06;13.57;;;3.25;;
47958;SDS011;33718;50.910;-1.514;2023-04-26T11:43:14;18.70;;;5.28;;
47958;SDS011;33718;50.910;-1.514;2023-04-26T11:45:19;11.27;;;3.13;;
47958;SDS011;33718;50.910;-1.514;2023-04-26T11:47:23;8.45;;;3.10;;
47958;SDS011;33718;50.910;-1.514;2023-04-26T11:49:44;15.95;;;3.47;;
47958;SDS011;33718;50.910;-1.514;2023-04-26T11:51:46;15.10;;;3.65;;
47958;SDS011;33718;50.910;-1.514;2023-04-26T11:53:49;12.73;;;3.65;;
47958;SDS011;33718;50.910;-1.514;2023-04-26T11:58:15;4.93;;;2.30;;
47958;SDS011;33718;50.910;-1.514;2023-04-26T12:00:21;13.05;;;3.13;;
47958;SDS011;33718;50.910;-1.514;2023-04-26T12:02:23;13.30;;;3.53;;
47958;SDS011;33718;50.910;-1.514;2023-04-26T12:04:43;12.88;;;3.58;;
47958;SDS011;33718;50.910;-1.514;2023-04-26T12:06:45;8.98;;;2.83;;
47958;SDS011;33718;50.910;-1.514;2023-04-26T12:08:50;16.17;;;2.90;;
47958;SDS011;33718;50.910;-1.514;2023-04-26T12:10:52;13.32;;;3.72;;
47958;SDS011;33718;50.910;-1.514;2023-04-26T12:12:54;12.00;;;3.33;;
47958;SDS011;33718;50.910;-1.514;2023-04-26T12:14:59;10.93;;;3.97;;
47958;SDS011;33718;50.910;-1.514;2023-04-26T12:19:04;12.52;;;4.15;;
47958;SDS011;33718;50.910;-1.514;2023-04-26T12:21:11;11.43;;;3.90;;
47958;SDS011;33718;50.910;-1.514;2023-04-26T12:23:14;13.55;;;3.75;;
47958;SDS011;33718;50.910;-1.514;2023-04-26T12:25:19;13.25;;;3.15;;
47958;SDS011;33718;50.910;-1.514;2023-04-26T12:27:20;16.50;;;4.20;;
47958;SDS011;33718;50.910;-1.514;2023-04-26T12:29:22;12.38;;;3.05;;
47958;SDS011;33718;50.910;-1.514;2023-04-26T12:31:24;10.43;;;3.30;;
47958;SDS011;33718;50.910;-1.514;2023-04-26T12:35:48;10.90;;;3.78;;
47958;SDS011;33718;50.910;-1.514;2023-04-26T12:37:50;14.43;;;3.53;;
47958;SDS011;33718;50.910;-1.514;2023-04-26T12:39:54;12.73;;;2.80;;
47958;SDS011;33718;50.910;-1.514;2023-04-26T12:41:55;18.40;;;3.42;;
47958;SDS011;33718;50.910;-1.514;2023-04-26T12:44:15;14.23;;;3.03;;
47958;SDS011;33718;50.910;-1.514;2023-04-26T12:46:25;13.68;;;3.35;;
47958;SDS011;33718;50.910;-1.514;2023-04-26T12:48:43;15.77;;;3.22;;
47958;SDS011;33718;50.910;-1.514;2023-04-26T12:51:05;12.13;;;2.90;;
47958;SDS011;33718;50.910;-1.514;2023-04-26T12:53:30;15.50;;;5.47;;
47958;SDS011;33718;50.910;-1.514;2023-04-26T12:55:42;14.52;;;2.92;;
47958;SDS011;33718;50.910;-1.514;2023-04-26T12:57:53;15.13;;;2.88;;
47958;SDS011;33718;50.910;-1.514;2023-04-26T13:00:00;9.50;;;2.92;;
47958;SDS011;33718;50.910;-1.514;2023-04-26T13:02:07;7.78;;;2.53;;
47958;SDS011;33718;50.910;-1.514;2023-04-26T13:04:14;15.07;;;3.42;;
47958;SDS011;33718;50.910;-1.514;2023-04-26T13:06:21;14.70;;;3.05;;
47958;SDS011;33718;50.910;-1.514;2023-04-26T13:08:33;11.27;;;4.05;;
47958;SDS011;33718;50.910;-1.514;2023-04-26T13:10:45;13.95;;;4.07;;
47958;SDS011;33718;50.910;-1.514;2023-04-26T13:12:58;18.63;;;3.22;;